createdAt,value
2023-11-24T00:04:00.155Z,10.51
2023-11-24T00:09:01.611Z,10.58
2023-11-24T00:14:03.424Z,10.59
2023-11-24T00:19:04.820Z,10.63
2023-11-24T00:24:06.658Z,10.76
2023-11-24T00:29:08.258Z,10.63
2023-11-24T00:34:09.838Z,10.19
2023-11-24T00:39:11.553Z,9.23
2023-11-24T00:44:12.988Z,8.62
2023-11-24T00:49:14.422Z,8.37
2023-11-24T00:54:16.141Z,8.12
2023-11-24T00:59:17.648Z,7.90
2023-11-24T01:04:19.382Z,7.79
2023-11-24T01:09:20.861Z,7.66
2023-11-24T01:14:22.200Z,7.60
2023-11-24T01:19:23.621Z,7.46
2023-11-24T01:24:25.075Z,7.45
2023-11-24T01:29:26.444Z,7.46
2023-11-24T01:34:28.008Z,7.51
2023-11-24T01:39:29.709Z,7.51
2023-11-24T01:44:31.328Z,7.54
2023-11-24T01:49:32.830Z,7.52
2023-11-24T01:54:38.571Z,7.54
2023-11-24T01:59:40.362Z,7.53
2023-11-24T02:04:42.065Z,7.55
2023-11-24T02:09:43.675Z,7.59
2023-11-24T02:14:45.052Z,7.56
2023-11-24T02:19:46.933Z,7.57
2023-11-24T02:24:48.328Z,7.56
2023-11-24T02:29:49.749Z,7.55
2023-11-24T02:34:51.213Z,7.54
2023-11-24T02:39:53.005Z,7.33
2023-11-24T02:44:54.443Z,7.18
2023-11-24T02:49:55.860Z,7.23
2023-11-24T02:54:57.242Z,7.16
2023-11-24T02:59:58.615Z,7.00
2023-11-24T03:04:59.973Z,7.04
2023-11-24T03:10:01.354Z,7.08
2023-11-24T03:15:02.716Z,7.15
2023-11-24T03:20:04.284Z,7.10
2023-11-24T03:25:05.930Z,7.04
2023-11-24T03:30:07.614Z,6.95
2023-11-24T03:35:09.230Z,6.68
2023-11-24T03:40:11.220Z,6.45
2023-11-24T03:45:13.279Z,6.28
2023-11-24T03:50:15.331Z,6.30
2023-11-24T03:55:16.973Z,6.47
2023-11-24T04:00:18.466Z,6.41
2023-11-24T04:05:20.356Z,6.29
2023-11-24T04:10:21.738Z,6.23
2023-11-24T04:15:24.278Z,6.32
2023-11-24T04:20:25.627Z,6.37
2023-11-24T04:25:27.059Z,6.57
2023-11-24T04:30:28.593Z,6.60
2023-11-24T04:35:30.077Z,6.63
2023-11-24T04:40:31.485Z,6.70
2023-11-24T04:45:32.885Z,6.64
2023-11-24T04:50:35.967Z,6.77
2023-11-24T04:55:37.453Z,6.79
2023-11-24T05:00:38.811Z,6.77
2023-11-24T05:05:40.196Z,6.73
2023-11-24T05:10:41.539Z,6.74
2023-11-24T05:15:43.042Z,6.75
2023-11-24T05:20:44.881Z,6.69
2023-11-24T05:25:46.402Z,6.74
2023-11-24T05:30:47.777Z,6.73
2023-11-24T05:35:49.240Z,6.67
2023-11-24T05:40:51.019Z,6.68
2023-11-24T05:45:52.442Z,6.62
2023-11-24T05:50:53.926Z,6.63
2023-11-24T05:55:55.334Z,6.59
2023-11-24T06:00:56.736Z,6.46
2023-11-24T06:05:58.197Z,6.29
2023-11-24T06:10:59.534Z,6.21
2023-11-24T06:16:01.088Z,6.23
2023-11-24T06:21:02.486Z,6.23
2023-11-24T06:26:03.872Z,6.28
2023-11-24T06:31:06.149Z,6.33
2023-11-24T06:36:08.468Z,6.38
2023-11-24T06:41:09.864Z,6.41
2023-11-24T06:46:13.028Z,6.46
2023-11-24T06:51:14.437Z,6.47
2023-11-24T06:56:15.821Z,6.39
2023-11-24T07:01:26.761Z,6.32
2023-11-24T07:06:28.480Z,6.08
2023-11-24T07:11:30.075Z,6.05
2023-11-24T07:16:31.741Z,6.15
2023-11-24T07:21:33.218Z,6.29
2023-11-24T07:26:34.630Z,6.51
2023-11-24T07:31:36.251Z,6.62
2023-11-24T07:36:37.659Z,6.58
2023-11-24T07:41:39.022Z,6.53
2023-11-24T07:46:40.763Z,6.11
2023-11-24T07:51:42.695Z,5.89
2023-11-24T07:56:44.083Z,5.73
2023-11-24T08:01:46.361Z,5.57
2023-11-24T08:06:47.833Z,5.58
2023-11-24T08:11:49.663Z,5.60
2023-11-24T08:16:52.239Z,5.64
2023-11-24T08:21:53.990Z,5.95
2023-11-24T08:26:55.430Z,5.94
2023-11-24T08:31:58.777Z,6.13
2023-11-24T08:37:03.326Z,6.65
2023-11-24T08:42:05.059Z,6.65
2023-11-24T08:47:06.417Z,6.42
2023-11-24T08:52:07.820Z,6.53
2023-11-24T08:57:09.210Z,6.62
2023-11-24T09:02:10.720Z,6.76
2023-11-24T09:07:12.247Z,6.57
2023-11-24T09:12:16.693Z,5.90
2023-11-24T09:17:18.040Z,6.10
2023-11-24T09:22:20.626Z,6.28
2023-11-24T09:27:22.770Z,6.44
2023-11-24T09:32:24.326Z,6.81
2023-11-24T09:37:27.614Z,6.74
2023-11-24T09:42:31.280Z,7.07
2023-11-24T09:47:33.167Z,7.78
2023-11-24T09:52:34.592Z,7.98
2023-11-24T09:57:36.074Z,7.45
2023-11-24T10:02:38.179Z,7.51
2023-11-24T10:07:40.560Z,7.26
2023-11-24T10:12:43.557Z,7.34
2023-11-24T10:17:46.798Z,7.16
2023-11-24T10:22:50.401Z,7.16
2023-11-24T10:28:01.808Z,7.22
2023-11-24T10:33:04.939Z,6.98
2023-11-24T10:38:07.564Z,6.85
2023-11-24T10:43:09.412Z,6.59
2023-11-24T10:48:15.855Z,6.18
2023-11-24T10:53:20.395Z,6.42
2023-11-24T10:58:22.509Z,6.70
2023-11-24T11:03:23.973Z,6.42
2023-11-24T11:08:35.325Z,6.46
2023-11-24T11:13:37.925Z,6.48
2023-11-24T11:18:39.741Z,6.50
2023-11-24T11:23:42.703Z,7.38
2023-11-24T11:28:47.066Z,7.10
2023-11-24T11:33:48.765Z,6.65
2023-11-24T11:38:54.543Z,7.10
2023-11-24T11:43:56.794Z,6.98
2023-11-24T11:48:58.737Z,6.88
2023-11-24T11:54:00.154Z,6.93
2023-11-24T11:59:01.580Z,7.00
2023-11-24T12:04:05.092Z,6.51
2023-11-24T12:09:09.644Z,6.65
2023-11-24T12:14:12.884Z,7.39
2023-11-24T12:19:15.055Z,7.33
2023-11-24T12:24:17.523Z,7.24
2023-11-24T12:29:19.782Z,7.08
2023-11-24T12:34:21.582Z,7.07
2023-11-24T12:39:31.497Z,6.95
2023-11-24T12:44:37.545Z,6.78
2023-11-24T12:49:57.756Z,6.33
2023-11-24T12:54:59.304Z,6.13
2023-11-24T13:00:07.280Z,6.15
2023-11-24T13:05:09.622Z,5.72
2023-11-24T13:10:12.166Z,5.33
2023-11-24T13:15:14.220Z,5.11
2023-11-24T13:20:18.022Z,5.20
2023-11-24T13:25:19.539Z,5.21
2023-11-24T13:30:24.397Z,4.92
2023-11-24T13:35:26.660Z,5.00
2023-11-24T13:40:32.095Z,4.96
2023-11-24T13:45:35.379Z,4.97
2023-11-24T13:50:38.334Z,4.92
2023-11-24T13:55:44.667Z,4.76
2023-11-24T14:00:46.875Z,4.91
2023-11-24T14:05:52.264Z,5.61
2023-11-24T14:10:53.676Z,5.52
2023-11-24T14:15:55.623Z,5.42
2023-11-24T14:20:58.056Z,5.26
2023-11-24T14:25:59.422Z,4.85
2023-11-24T14:31:01.901Z,4.79
2023-11-24T14:36:03.430Z,4.83
2023-11-24T14:41:08.428Z,4.58
2023-11-24T14:46:10.274Z,4.60
2023-11-24T14:51:13.930Z,4.51
2023-11-24T14:56:16.705Z,4.60
2023-11-24T15:01:20.699Z,4.86
2023-11-24T15:06:26.979Z,4.86
2023-11-24T15:11:46.218Z,5.02
2023-11-24T15:16:58.858Z,5.08
2023-11-24T15:22:05.956Z,4.89
2023-11-24T15:27:08.987Z,4.93
2023-11-24T15:32:18.593Z,4.92
2023-11-24T15:37:20.307Z,4.91
2023-11-24T15:42:21.754Z,4.91
2023-11-24T15:47:25.508Z,4.81
2023-11-24T15:52:28.380Z,4.62
2023-11-24T15:57:29.768Z,4.62
2023-11-24T16:02:33.731Z,4.60
2023-11-24T16:07:35.757Z,4.54
2023-11-24T16:12:37.219Z,4.21
2023-11-24T16:17:38.588Z,4.01
2023-11-24T16:22:41.089Z,3.89
2023-11-24T16:27:42.923Z,3.76
2023-11-24T16:32:44.298Z,3.67
2023-11-24T16:37:45.715Z,3.66
2023-11-24T16:42:49.026Z,3.72
2023-11-24T16:47:51.275Z,3.62
2023-11-24T16:52:52.700Z,3.57
2023-11-24T16:57:54.165Z,3.64
2023-11-24T17:02:55.764Z,3.87
2023-11-24T17:07:59.545Z,4.05
2023-11-24T17:13:01.470Z,4.12
2023-11-24T17:18:05.958Z,4.06
2023-11-24T17:23:07.429Z,3.92
2023-11-24T17:28:09.039Z,3.54
2023-11-24T17:33:10.627Z,1.61
2023-11-24T17:38:12.589Z,1.33
2023-11-24T17:43:14.386Z,1.45
2023-11-24T17:48:16.836Z,1.53
2023-11-24T17:53:19.581Z,1.49
2023-11-24T17:58:21.731Z,1.74
2023-11-24T18:03:23.171Z,1.95
2023-11-24T18:08:24.688Z,2.16
2023-11-24T18:13:26.912Z,2.46
2023-11-24T18:18:28.353Z,2.68
2023-11-24T18:23:32.312Z,2.88
2023-11-24T18:28:33.793Z,2.97
2023-11-24T18:33:35.205Z,3.20
2023-11-24T18:38:36.620Z,3.34
2023-11-24T18:43:40.539Z,3.30
2023-11-24T18:48:42.434Z,3.27
2023-11-24T18:53:44.164Z,3.28
2023-11-24T18:58:45.500Z,3.31
2023-11-24T19:03:46.947Z,3.31
2023-11-24T19:08:48.324Z,3.28
2023-11-24T19:13:50.201Z,3.28
2023-11-24T19:18:51.564Z,3.35
2023-11-24T19:23:53.741Z,3.44
2023-11-24T19:29:02.862Z,3.46
2023-11-24T19:34:09.999Z,3.32
2023-11-24T19:39:12.194Z,3.45
2023-11-24T19:44:14.681Z,3.41
2023-11-24T19:49:16.090Z,3.49
2023-11-24T19:54:17.509Z,3.57
2023-11-24T19:59:18.848Z,3.58
2023-11-24T20:04:20.510Z,3.62
2023-11-24T20:09:21.856Z,3.72
2023-11-24T20:14:23.254Z,3.81
2023-11-24T20:19:24.638Z,3.89
2023-11-24T20:24:27.173Z,3.86
2023-11-24T20:29:28.520Z,3.84
2023-11-24T20:34:29.924Z,3.81
2023-11-24T20:39:31.314Z,3.88
2023-11-24T20:44:34.299Z,3.77
2023-11-24T20:49:36.008Z,3.63
2023-11-24T20:54:38.698Z,3.43
2023-11-24T20:59:40.089Z,3.30
2023-11-24T21:04:41.598Z,3.16
2023-11-24T21:09:42.980Z,2.86
2023-11-24T21:14:44.314Z,2.65
2023-11-24T21:19:45.669Z,2.72
2023-11-24T21:24:47.074Z,2.61
2023-11-24T21:29:48.659Z,2.56
2023-11-24T21:34:50.112Z,2.58
2023-11-24T21:39:51.468Z,2.53
2023-11-24T21:44:53.876Z,2.47
2023-11-24T21:49:55.403Z,2.59
2023-11-24T21:54:57.054Z,2.64
2023-11-24T21:59:58.564Z,2.62
2023-11-24T22:05:00.383Z,2.58
2023-11-24T22:10:06.269Z,2.69
2023-11-24T22:15:09.060Z,2.73
2023-11-24T22:20:15.345Z,2.71
2023-11-24T22:25:16.819Z,2.56
2023-11-24T22:30:18.237Z,2.64
2023-11-24T22:35:19.586Z,2.65
2023-11-24T22:40:20.986Z,2.54
2023-11-24T22:45:22.393Z,2.57
2023-11-24T22:50:23.834Z,2.59
2023-11-24T22:55:25.201Z,2.63
2023-11-24T23:00:37.321Z,2.60
2023-11-24T23:05:38.751Z,2.63
2023-11-24T23:10:40.125Z,2.64
2023-11-24T23:15:41.487Z,2.57
2023-11-24T23:20:43.021Z,2.54
2023-11-24T23:25:44.442Z,2.57
2023-11-24T23:30:45.823Z,2.55
2023-11-24T23:35:48.156Z,2.47
2023-11-24T23:40:49.675Z,2.26
2023-11-24T23:45:51.085Z,2.08
2023-11-24T23:50:52.834Z,1.99
2023-11-24T23:55:57.907Z,1.83
